Time;durP1;ratioP1;P1;durP2;ratioP2;P2;SDS_P1;SDS_P2;PMS_P1;PMS_P2;Temp;Humidity;BMP_temperature;BMP_pressure;BME280_temperature;BME280_humidity;BME280_pressure;Samples;Min_cycle;Max_cycle;Signal;HPM_P1;HPM_P2
2022/12/08 00:01:27;;;;;;;20.80;9.98;;;0.70;99.90;;;;;;6221612;23;20173;-92
2022/12/08 00:03:54;;;;;;;21.70;10.07;;;0.80;99.90;;;;;;6219780;23;20215;-90
2022/12/08 00:09:25;;;;;;;17.30;7.18;;;0.70;99.90;;;;;;6221330;23;20834;-90
2022/12/08 00:12:03;;;;;;;18.80;8.25;;;0.70;99.90;;;;;;6220743;23;20196;-90
2022/12/08 00:14:33;;;;;;;22.77;11.15;;;0.80;99.90;;;;;;6219715;23;20169;-89
2022/12/08 00:17:00;;;;;;;21.13;10.63;;;0.80;99.90;;;;;;6221082;23;20204;-90
2022/12/08 00:19:26;;;;;;;17.27;8.75;;;0.90;99.90;;;;;;6220603;23;20184;-90
2022/12/08 00:21:52;;;;;;;16.27;9.50;;;0.90;99.90;;;;;;6220903;23;20153;-90
2022/12/08 00:24:19;;;;;;;13.13;8.53;;;0.80;99.90;;;;;;6220582;23;20529;-90
2022/12/08 00:26:45;;;;;;;18.45;9.50;;;0.80;99.90;;;;;;6218951;23;20380;-90
2022/12/08 00:29:11;;;;;;;17.57;9.53;;;0.80;99.90;;;;;;6219406;23;20188;-90
2022/12/08 00:31:36;;;;;;;16.47;7.97;;;0.80;99.90;;;;;;6221805;23;20202;-90
2022/12/08 00:34:02;;;;;;;15.80;7.93;;;;;;;;;;6220914;23;20396;-90
2022/12/08 00:36:28;;;;;;;15.80;9.30;;;0.90;99.90;;;;;;6222538;23;20173;-90
2022/12/08 00:38:57;;;;;;;14.47;7.10;;;1.00;99.90;;;;;;6222047;23;20145;-91
2022/12/08 00:44:10;;;;;;;18.48;8.43;;;1.10;99.90;;;;;;6223693;23;20744;-91
2022/12/08 00:46:36;;;;;;;16.58;8.30;;;1.10;99.90;;;;;;6223031;23;20153;-91
2022/12/08 00:49:03;;;;;;;16.63;7.10;;;1.10;99.90;;;;;;6222661;23;20164;-91
2022/12/08 00:51:28;;;;;;;16.98;8.00;;;1.00;99.90;;;;;;6222932;22;20851;-90
2022/12/08 00:53:54;;;;;;;18.00;8.57;;;1.00;99.90;;;;;;6223855;23;20176;-91
2022/12/08 00:56:20;;;;;;;16.83;8.73;;;;;;;;;;6220539;23;20247;-92
2022/12/08 00:58:46;;;;;;;10.13;5.97;;;;;;;;;;6220649;23;20149;-90
2022/12/08 01:01:13;;;;;;;18.90;9.27;;;0.70;99.90;;;;;;6221110;23;20427;-90
2022/12/08 01:03:39;;;;;;;14.50;8.68;;;0.80;99.90;;;;;;6221253;23;20400;-90
2022/12/08 01:06:06;;;;;;;17.20;8.57;;;0.80;99.90;;;;;;6224286;23;20153;-91
2022/12/08 01:08:32;;;;;;;14.43;8.25;;;0.80;99.90;;;;;;6224378;23;20228;-90
2022/12/08 01:11:09;;;;;;;20.58;9.82;;;0.80;99.90;;;;;;6224728;23;20171;-90
2022/12/08 01:13:35;;;;;;;17.35;9.20;;;0.80;99.90;;;;;;6223900;23;20179;-90
2022/12/08 01:16:01;;;;;;;24.77;8.90;;;;;;;;;;6224514;23;20572;-90
2022/12/08 01:18:27;;;;;;;15.33;8.90;;;0.80;99.90;;;;;;6223374;23;20181;-91
2022/12/08 01:20:53;;;;;;;18.50;8.23;;;0.90;99.90;;;;;;6225246;23;20352;-89
2022/12/08 01:23:19;;;;;;;14.53;7.57;;;;;;;;;;6224011;23;20267;-89
2022/12/08 01:25:44;;;;;;;16.15;8.13;;;1.00;99.90;;;;;;6223330;23;20161;-89
2022/12/08 01:28:10;;;;;;;20.43;8.90;;;;;;;;;;6223485;23;20161;-90
2022/12/08 01:30:40;;;;;;;19.07;9.17;;;1.00;99.90;;;;;;6221037;23;20157;-89
2022/12/08 01:33:05;;;;;;;18.20;7.35;;;0.90;99.90;;;;;;6219846;23;20403;-90
2022/12/08 01:35:33;;;;;;;16.80;8.80;;;1.10;99.90;;;;;;6220143;23;20230;-89
2022/12/08 01:37:58;;;;;;;17.27;7.78;;;1.00;99.90;;;;;;6219751;23;20184;-89
2022/12/08 01:40:24;;;;;;;13.50;7.87;;;;;;;;;;6220575;23;20150;-89
2022/12/08 01:42:51;;;;;;;14.83;7.90;;;;;;;;;;6219587;23;20239;-90
2022/12/08 01:45:16;;;;;;;13.88;6.78;;;1.00;99.90;;;;;;6217470;23;20373;-90
2022/12/08 01:47:46;;;;;;;15.13;6.73;;;1.00;99.90;;;;;;6218299;23;20164;-90
2022/12/08 01:50:14;;;;;;;13.43;7.60;;;0.90;99.90;;;;;;6220132;23;20154;-89
2022/12/08 01:52:47;;;;;;;16.08;7.60;;;1.00;99.90;;;;;;6220181;23;20183;-89
2022/12/08 01:55:13;;;;;;;12.02;6.25;;;;;;;;;;6219466;23;20171;-89
2022/12/08 01:57:44;;;;;;;15.30;6.93;;;0.90;99.90;;;;;;6223516;23;20177;-89
2022/12/08 02:00:13;;;;;;;20.35;8.50;;;0.90;99.90;;;;;;6223099;23;20404;-90
2022/12/08 02:02:48;;;;;;;12.55;7.05;;;0.90;99.90;;;;;;6217437;23;20200;-90
2022/12/08 02:05:15;;;;;;;14.30;8.60;;;0.90;99.90;;;;;;6216614;23;20181;-89
2022/12/08 02:07:41;;;;;;;11.05;6.30;;;0.90;99.90;;;;;;6217441;23;20604;-89
2022/12/08 02:10:07;;;;;;;11.07;6.05;;;1.40;99.90;;;;;;6218804;23;20244;-89
2022/12/08 02:12:33;;;;;;;7.43;4.95;;;0.90;99.90;;;;;;6218195;23;20177;-90
2022/12/08 02:14:59;;;;;;;11.07;4.73;;;0.90;99.90;;;;;;6215373;23;20163;-90
2022/12/08 02:18:02;;;;;;;8.07;4.57;;;1.00;99.90;;;;;;6215305;23;20236;-90
2022/12/08 02:20:55;;;;;;;12.38;6.45;;;1.00;99.90;;;;;;6217756;23;20152;-89
2022/12/08 02:23:44;;;;;;;9.15;5.95;;;1.00;99.90;;;;;;6216028;23;20567;-90
2022/12/08 02:26:43;;;;;;;11.38;6.60;;;1.00;99.90;;;;;;6215593;23;20145;-89
2022/12/08 02:29:17;;;;;;;14.55;6.32;;;1.00;99.90;;;;;;6215966;23;20160;-90
2022/12/08 02:32:23;;;;;;;9.30;4.35;;;1.00;99.90;;;;;;6217941;23;20236;-89
2022/12/08 02:34:54;;;;;;;8.43;5.63;;;1.00;99.90;;;;;;6215970;23;20171;-90
2022/12/08 02:37:20;;;;;;;10.43;6.43;;;;;;;;;;6218572;23;20180;-90
2022/12/08 02:40:19;;;;;;;15.90;7.13;;;1.10;99.90;;;;;;6218323;23;20150;-91
2022/12/08 02:43:07;;;;;;;10.60;6.05;;;1.10;99.90;;;;;;6218189;23;20173;-90
2022/12/08 02:45:42;;;;;;;12.43;6.25;;;1.10;99.90;;;;;;6215162;23;20177;-91
2022/12/08 02:48:08;;;;;;;11.15;5.65;;;1.10;99.90;;;;;;6220175;23;20136;-90
2022/12/08 02:50:34;;;;;;;9.23;5.05;;;1.10;99.90;;;;;;6218644;23;20153;-90
2022/12/08 02:53:05;;;;;;;10.68;6.40;;;;;;;;;;6217283;23;20228;-91
2022/12/08 02:55:45;;;;;;;9.27;5.70;;;1.10;99.90;;;;;;6215506;23;20169;-90
2022/12/08 02:58:40;;;;;;;12.40;6.18;;;1.10;99.90;;;;;;6215244;23;20165;-89
2022/12/08 03:01:47;;;;;;;9.95;4.78;;;1.10;99.90;;;;;;6218318;23;20141;-90
2022/12/08 03:04:24;;;;;;;10.05;5.13;;;1.00;99.90;;;;;;6220869;23;20506;-89
2022/12/08 03:07:20;;;;;;;15.85;6.95;;;1.20;99.90;;;;;;6220515;23;20141;-89
2022/12/08 03:09:55;;;;;;;9.32;5.28;;;1.00;99.90;;;;;;6219618;23;20129;-89
2022/12/08 03:12:39;;;;;;;15.48;6.38;;;1.00;99.90;;;;;;6218307;23;20155;-89
2022/12/08 03:15:11;;;;;;;9.73;3.67;;;1.00;99.90;;;;;;6217841;23;20141;-89
2022/12/08 03:17:42;;;;;;;10.25;4.55;;;1.00;99.90;;;;;;6217983;23;20176;-89
2022/12/08 03:20:11;;;;;;;10.27;5.60;;;3.20;99.90;;;;;;6217206;23;20144;-89
2022/12/08 03:22:40;;;;;;;8.23;4.18;;;1.00;99.90;;;;;;6217400;23;20177;-90
2022/12/08 03:25:08;;;;;;;14.38;5.97;;;1.00;99.90;;;;;;6215727;23;20161;-89
2022/12/08 03:27:34;;;;;;;10.60;6.65;;;0.90;99.90;;;;;;6216489;23;20215;-90
2022/12/08 03:30:00;;;;;;;7.10;4.17;;;;;;;;;;6217897;23;20772;-89
2022/12/08 03:32:46;;;;;;;11.55;5.82;;;0.90;99.90;;;;;;6217425;23;20239;-89
2022/12/08 03:35:15;;;;;;;12.32;5.47;;;0.90;99.90;;;;;;6216164;23;20210;-90
2022/12/08 03:37:41;;;;;;;9.55;5.28;;;1.00;99.90;;;;;;6217014;23;20188;-89
2022/12/08 03:40:11;;;;;;;12.50;5.32;;;0.90;99.90;;;;;;6218181;22;20141;-89
2022/12/08 03:42:37;;;;;;;13.63;5.75;;;1.00;99.90;;;;;;6217966;23;20264;-90
2022/12/08 03:45:04;;;;;;;11.13;5.87;;;1.10;99.90;;;;;;6216643;23;20164;-90
2022/12/08 03:47:30;;;;;;;11.07;5.07;;;1.10;99.90;;;;;;6218576;23;20149;-90
2022/12/08 03:49:56;;;;;;;9.80;6.07;;;;;;;;;;6218376;23;20195;-90
2022/12/08 03:52:22;;;;;;;11.07;6.00;;;;;;;;;;6218307;23;20153;-91
2022/12/08 03:54:47;;;;;;;11.48;5.53;;;1.20;99.90;;;;;;6216750;23;20815;-90
2022/12/08 03:57:13;;;;;;;12.33;6.17;;;;;;;;;;6214741;23;20184;-90
2022/12/08 03:59:39;;;;;;;10.35;6.07;;;1.20;99.90;;;;;;6217263;23;20136;-90
2022/12/08 04:02:07;;;;;;;15.90;5.83;;;1.00;99.90;;;;;;6217596;23;20153;-90
2022/12/08 04:04:33;;;;;;;11.13;6.00;;;1.20;99.90;;;;;;6217297;23;20169;-89
2022/12/08 04:06:59;;;;;;;9.50;5.40;;;;;;;;;;6220770;23;20168;-90
2022/12/08 04:09:24;;;;;;;8.02;4.30;;;1.30;99.90;;;;;;6220857;22;20168;-90
2022/12/08 04:11:50;;;;;;;17.00;6.37;;;;;;;;;;6219932;23;20161;-89
2022/12/08 04:14:16;;;;;;;9.60;5.72;;;;;;;;;;6219038;23;20199;-91
2022/12/08 04:16:42;;;;;;;11.43;4.83;;;;;;;;;;6218795;23;20189;-90
2022/12/08 04:19:08;;;;;;;14.07;5.60;;;;;;;;;;6218589;23;20676;-90
2022/12/08 04:21:34;;;;;;;8.35;4.45;;;;;;;;;;6218785;23;20840;-90
2022/12/08 04:24:01;;;;;;;13.60;5.50;;;;;;;;;;6217879;23;20255;-91
2022/12/08 04:26:27;;;;;;;11.75;4.60;;;1.40;99.90;;;;;;6217742;23;20380;-89
2022/12/08 04:28:52;;;;;;;14.80;6.03;;;;;;;;;;6217868;23;20164;-89
2022/12/08 04:31:18;;;;;;;10.30;5.77;;;;;;;;;;6218106;23;20153;-90
2022/12/08 04:33:44;;;;;;;9.40;5.70;;;;;;;;;;6217004;23;20475;-90
2022/12/08 04:36:10;;;;;;;10.37;5.87;;;;;;;;;;6217759;23;20368;-89
2022/12/08 04:38:36;;;;;;;10.63;6.07;;;;;;;;;;6216054;23;20921;-89
2022/12/08 04:41:02;;;;;;;15.70;5.70;;;1.20;99.90;;;;;;6217423;23;20379;-90
2022/12/08 04:43:28;;;;;;;10.97;6.30;;;;;;;;;;6217945;23;20209;-90
2022/12/08 04:45:54;;;;;;;16.23;6.38;;;1.20;99.90;;;;;;6216695;23;20156;-92
2022/12/08 04:48:19;;;;;;;10.00;5.27;;;;;;;;;;6218162;23;20596;-91
2022/12/08 04:50:45;;;;;;;10.40;5.43;;;1.20;99.90;;;;;;6217751;23;20160;-91
2022/12/08 04:53:12;;;;;;;11.70;5.33;;;1.20;99.90;;;;;;6215716;23;20185;-91
2022/12/08 04:55:40;;;;;;;8.82;5.72;;;1.20;99.90;;;;;;6216691;23;20172;-90
2022/12/08 04:58:06;;;;;;;8.27;5.05;;;1.20;99.90;;;;;;6217341;23;20187;-90
2022/12/08 05:00:31;;;;;;;12.80;5.47;;;1.20;99.90;;;;;;6217899;23;20149;-90
2022/12/08 05:02:57;;;;;;;8.87;5.57;;;1.20;99.90;;;;;;6217828;23;20165;-91
2022/12/08 05:05:23;;;;;;;13.13;6.80;;;;;;;;;;6217339;23;20194;-91
2022/12/08 05:07:49;;;;;;;10.20;5.32;;;1.20;99.90;;;;;;6221419;23;20153;-91
2022/12/08 05:10:15;;;;;;;9.30;5.53;;;;;;;;;;6219632;23;20157;-90
2022/12/08 05:12:40;;;;;;;10.30;5.00;;;1.30;99.90;;;;;;6219729;23;20199;-91
2022/12/08 05:15:12;;;;;;;10.23;5.07;;;1.30;99.90;;;;;;6217408;23;20387;-90
2022/12/08 05:17:38;;;;;;;6.28;3.97;;;;;;;;;;6218647;23;20177;-90
2022/12/08 05:20:07;;;;;;;12.10;5.70;;;1.30;99.90;;;;;;6218134;23;20156;-89
2022/12/08 05:22:32;;;;;;;11.05;6.80;;;1.30;99.90;;;;;;6217419;23;20368;-89
2022/12/08 05:24:58;;;;;;;13.20;6.50;;;;;;;;;;6216743;23;20156;-88
2022/12/08 05:27:24;;;;;;;14.33;5.90;;;;;;;;;;6219120;23;20134;-88
2022/12/08 05:29:50;;;;;;;10.83;5.30;;;1.30;99.90;;;;;;6215622;23;20372;-89
2022/12/08 05:32:15;;;;;;;10.90;5.63;;;1.30;99.90;;;;;;6214922;23;20718;-89
2022/12/08 05:34:41;;;;;;;8.60;5.63;;;1.30;99.90;;;;;;6212952;23;20645;-88
2022/12/08 05:37:07;;;;;;;9.80;5.70;;;1.40;99.90;;;;;;6215209;22;20217;-89
2022/12/08 05:39:33;;;;;;;12.63;6.20;;;;;;;;;;6216379;23;20138;-89
2022/12/08 05:41:59;;;;;;;11.10;5.80;;;1.30;99.90;;;;;;6215721;23;20504;-89
2022/12/08 05:44:25;;;;;;;8.90;5.30;;;3.80;99.90;;;;;;6211699;23;20616;-89
2022/12/08 05:46:51;;;;;;;11.38;5.53;;;1.30;99.90;;;;;;6214004;23;20161;-89
2022/12/08 05:49:17;;;;;;;12.75;6.13;;;1.30;99.90;;;;;;6212693;23;20213;-88
2022/12/08 05:51:43;;;;;;;10.20;5.97;;;1.30;99.90;;;;;;6211963;23;20292;-90
2022/12/08 05:54:09;;;;;;;10.47;5.77;;;1.40;99.90;;;;;;6212922;23;20438;-90
2022/12/08 05:56:35;;;;;;;16.77;6.83;;;;;;;;;;6214529;23;20431;-89
2022/12/08 05:59:00;;;;;;;15.60;7.00;;;1.40;99.90;;;;;;6212088;23;20376;-89
2022/12/08 06:01:28;;;;;;;17.50;6.77;;;1.50;99.90;;;;;;6212874;23;20373;-89
2022/12/08 06:03:55;;;;;;;16.15;7.30;;;1.50;99.90;;;;;;6215738;23;20161;-90
2022/12/08 06:06:21;;;;;;;11.10;6.40;;;1.50;99.90;;;;;;6212727;23;20171;-90
2022/12/08 06:08:47;;;;;;;12.27;6.90;;;;;;;;;;6214212;23;20157;-89
2022/12/08 06:11:25;;;;;;;12.93;6.10;;;1.60;99.90;;;;;;6214144;23;20157;-89
2022/12/08 06:13:51;;;;;;;14.27;6.22;;;1.60;99.90;;;;;;6214823;23;20179;-88
2022/12/08 06:16:18;;;;;;;11.20;6.15;;;1.60;99.90;;;;;;6214561;23;20627;-89
2022/12/08 06:18:44;;;;;;;14.15;6.95;;;1.60;99.90;;;;;;6212433;23;20156;-89
2022/12/08 06:21:12;;;;;;;11.70;6.07;;;1.60;99.90;;;;;;6210146;23;20620;-89
2022/12/08 06:23:38;;;;;;;12.82;6.72;;;1.50;99.90;;;;;;6213165;23;20164;-89
2022/12/08 06:26:10;;;;;;;11.60;5.97;;;3.40;99.90;;;;;;6211920;23;20156;-89
2022/12/08 06:28:36;;;;;;;14.23;5.57;;;1.60;99.90;;;;;;6210534;23;20874;-89
2022/12/08 06:31:15;;;;;;;12.57;6.22;;;1.50;99.90;;;;;;6211596;23;20153;-89
2022/12/08 06:33:41;;;;;;;11.32;6.25;;;1.50;99.90;;;;;;6211494;23;20230;-89
2022/12/08 06:36:07;;;;;;;11.17;5.93;;;;;;;;;;6211688;23;20173;-88
2022/12/08 06:38:33;;;;;;;15.82;5.95;;;1.70;99.90;;;;;;6211063;23;20373;-89
2022/12/08 06:41:00;;;;;;;11.15;5.55;;;1.70;99.90;;;;;;6211091;23;20192;-90
2022/12/08 06:43:26;;;;;;;10.82;6.05;;;1.80;99.90;;;;;;6211286;23;20180;-89
2022/12/08 06:45:52;;;;;;;13.87;7.20;;;;;;;;;;6211749;23;20189;-89
2022/12/08 06:48:18;;;;;;;9.77;5.70;;;1.90;99.90;;;;;;6210442;23;20372;-89
2022/12/08 06:50:44;;;;;;;11.87;6.47;;;1.70;99.90;;;;;;6211161;23;20484;-89
2022/12/08 06:53:14;;;;;;;10.30;6.90;;;1.70;99.90;;;;;;6211566;23;20173;-89
2022/12/08 06:55:50;;;;;;;13.70;6.32;;;1.60;99.90;;;;;;6210498;23;20227;-89
2022/12/08 06:58:16;;;;;;;12.65;7.00;;;1.60;99.90;;;;;;6211293;23;20165;-88
2022/12/08 07:00:41;;;;;;;10.83;7.30;;;1.60;99.90;;;;;;6210619;23;20149;-89
2022/12/08 07:03:08;;;;;;;16.30;7.70;;;1.70;99.90;;;;;;6211607;23;20173;-88
2022/12/08 07:05:35;;;;;;;11.50;6.45;;;1.70;99.90;;;;;;6212752;23;20177;-89
2022/12/08 07:08:00;;;;;;;14.23;7.55;;;1.60;99.90;;;;;;6211943;23;20153;-89
2022/12/08 07:10:26;;;;;;;12.03;6.20;;;1.60;99.90;;;;;;6211155;23;20145;-88
2022/12/08 07:12:52;;;;;;;9.60;5.73;;;;;;;;;;6210365;23;20188;-89
2022/12/08 07:15:19;;;;;;;11.05;5.60;;;;;;;;;;6210923;23;20429;-88
2022/12/08 07:17:44;;;;;;;12.07;5.80;;;1.70;99.90;;;;;;6212339;23;20208;-89
2022/12/08 07:20:10;;;;;;;14.37;7.07;;;1.70;99.90;;;;;;6211401;23;20149;-89
2022/12/08 07:22:36;;;;;;;10.47;6.33;;;;;;;;;;6211226;23;20176;-89
2022/12/08 07:25:02;;;;;;;10.17;6.00;;;;;;;;;;6211754;23;20929;-89
2022/12/08 07:27:28;;;;;;;14.00;6.50;;;1.60;99.90;;;;;;6211803;23;20714;-88
2022/12/08 07:29:54;;;;;;;11.07;7.40;;;;;;;;;;6210133;23;20176;-88
2022/12/08 07:32:19;;;;;;;10.03;6.07;;;1.70;99.90;;;;;;6209862;23;20161;-89
2022/12/08 07:34:45;;;;;;;11.43;6.43;;;;;;;;;;6212343;23;20435;-88
2022/12/08 07:37:14;;;;;;;9.00;6.20;;;1.80;99.90;;;;;;6213174;23;20169;-89
2022/12/08 07:39:39;;;;;;;13.82;7.05;;;1.70;99.90;;;;;;6212415;23;20383;-88
2022/12/08 07:42:05;;;;;;;12.37;6.10;;;;;;;;;;6214840;23;20498;-89
2022/12/08 07:44:31;;;;;;;9.77;5.60;;;;;;;;;;6213983;23;20523;-89
2022/12/08 07:46:57;;;;;;;10.93;5.57;;;;;;;;;;6214818;23;20380;-89
2022/12/08 07:49:23;;;;;;;11.40;6.30;;;;;;;;;;6216645;23;20360;-89
2022/12/08 07:51:49;;;;;;;8.43;5.50;;;2.40;99.90;;;;;;6214026;23;20388;-89
2022/12/08 07:54:15;;;;;;;9.10;6.17;;;;;;;;;;6216286;23;20879;-89
2022/12/08 07:56:40;;;;;;;10.70;7.03;;;2.40;99.90;;;;;;6214455;23;20211;-89
2022/12/08 07:59:06;;;;;;;11.37;5.87;;;;;;;;;;6213661;23;20376;-89
2022/12/08 08:01:33;;;;;;;13.05;5.95;;;2.90;99.90;;;;;;6215309;23;20198;-89
2022/12/08 08:04:01;;;;;;;8.80;5.50;;;3.20;99.90;;;;;;6214816;23;20165;-88
2022/12/08 08:06:27;;;;;;;11.48;6.25;;;3.20;99.90;;;;;;6214996;23;20153;-89
2022/12/08 08:08:53;;;;;;;10.48;5.90;;;3.70;99.90;;;;;;6215516;23;20203;-89
2022/12/08 08:11:19;;;;;;;12.07;5.55;;;4.10;99.90;;;;;;6215854;23;20646;-88
2022/12/08 08:13:49;;;;;;;7.38;5.03;;;5.20;99.90;;;;;;6215603;23;20513;-92
2022/12/08 08:16:15;;;;;;;9.75;6.50;;;5.60;99.90;;;;;;6219547;23;20180;-92
2022/12/08 08:18:42;;;;;;;6.10;5.07;;;;;;;;;;6220074;23;20239;-88
2022/12/08 08:21:07;;;;;;;9.38;5.85;;;6.30;99.90;;;;;;6215640;23;20208;-89
2022/12/08 08:23:33;;;;;;;13.53;5.60;;;6.30;99.90;;;;;;6220298;23;20169;-88
2022/12/08 08:26:00;;;;;;;13.70;5.80;;;6.70;99.90;;;;;;6219688;23;20149;-89
2022/12/08 08:28:29;;;;;;;7.47;4.80;;;;;;;;;;6221322;23;20149;-88
2022/12/08 08:30:56;;;;;;;9.45;5.80;;;7.80;99.90;;;;;;6220474;23;20634;-89
2022/12/08 08:33:22;;;;;;;7.65;5.00;;;;;;;;;;6221318;23;20208;-90
2022/12/08 08:35:48;;;;;;;11.13;5.60;;;;;;;;;;6223731;23;20168;-89
2022/12/08 08:38:14;;;;;;;11.93;5.95;;;;;;;;;;6222421;23;20180;-89
2022/12/08 08:40:40;;;;;;;6.35;5.15;;;;;;;;;;6221431;23;20153;-89
2022/12/08 08:43:07;;;;;;;12.80;5.70;;;9.90;99.90;;;;;;6221687;23;20181;-90
2022/12/08 08:45:34;;;;;;;15.43;6.57;;;;;;;;;;6220541;23;20209;-89
2022/12/08 08:48:00;;;;;;;11.93;6.32;;;;;;;;;;6218797;23;20550;-89
2022/12/08 08:50:26;;;;;;;9.30;5.72;;;9.20;99.90;;;;;;6217291;23;20358;-89
2022/12/08 08:52:52;;;;;;;12.18;6.35;;;;;;;;;;6217252;23;20231;-90
2022/12/08 08:55:18;;;;;;;10.93;6.70;;;9.70;99.90;;;;;;6216764;23;20161;-88
2022/12/08 08:57:44;;;;;;;8.73;4.80;;;9.90;99.90;;;;;;6217359;23;20637;-87
2022/12/08 09:00:15;;;;;;;7.67;4.43;;;10.40;99.90;;;;;;6215942;23;20224;-91
2022/12/08 09:02:41;;;;;;;7.30;4.80;;;;;;;;;;6216528;23;20514;-89
2022/12/08 09:05:07;;;;;;;7.43;3.93;;;;;;;;;;6217004;23;20184;-88
2022/12/08 09:07:33;;;;;;;5.68;3.70;;;;;;;;;;6215669;23;20376;-88
2022/12/08 09:09:59;;;;;;;6.13;4.57;;;;;;;;;;6215666;23;20157;-88
2022/12/08 09:12:25;;;;;;;5.23;3.70;;;;;;;;;;6212629;23;20387;-87
2022/12/08 09:14:51;;;;;;;5.80;3.70;;;;;;;;;;6212659;23;20427;-88
2022/12/08 09:17:17;;;;;;;5.43;3.60;;;;;;;;;;6210954;23;20455;-87
2022/12/08 09:19:43;;;;;;;4.80;3.30;;;;;;;;;;6212387;23;20380;-87
2022/12/08 09:22:09;;;;;;;5.72;2.58;;;;;;;;;;6214398;23;20371;-87
2022/12/08 09:24:35;;;;;;;4.70;3.60;;;;;;;;;;6213647;23;20173;-87
2022/12/08 09:27:00;;;;;;;7.60;3.03;;;7.80;99.90;;;;;;6213352;23;20380;-87
2022/12/08 09:29:26;;;;;;;6.27;4.23;;;;;;;;;;6215491;23;20412;-88
2022/12/08 09:31:53;;;;;;;6.17;3.27;;;;;;;;;;6214285;23;20185;-87
2022/12/08 09:34:19;;;;;;;6.50;3.50;;;6.00;99.90;;;;;;6215688;23;20463;-87
2022/12/08 09:36:44;;;;;;;6.33;3.70;;;6.10;99.90;;;;;;6212433;23;20215;-87
2022/12/08 09:39:10;;;;;;;3.93;2.80;;;6.00;99.90;;;;;;6213725;23;20372;-86
2022/12/08 09:41:50;;;;;;;8.03;4.40;;;5.60;99.90;;;;;;6215634;23;20373;-87
2022/12/08 09:44:31;;;;;;;5.68;3.50;;;4.90;99.90;;;;;;6213002;23;20274;-87
2022/12/08 09:46:59;;;;;;;6.63;4.25;;;4.50;99.90;;;;;;6214810;23;20196;-87
2022/12/08 09:49:38;;;;;;;5.85;3.70;;;4.50;99.90;;;;;;6212859;23;20299;-87
2022/12/08 09:52:10;;;;;;;4.95;3.33;;;4.10;99.90;;;;;;6215458;23;20263;-87
2022/12/08 09:54:36;;;;;;;7.60;4.63;;;4.10;99.90;;;;;;6213873;23;20173;-87
2022/12/08 09:57:07;;;;;;;6.33;3.70;;;4.60;99.90;;;;;;6212665;23;20303;-87
2022/12/08 09:59:33;;;;;;;6.55;5.15;;;4.50;99.90;;;;;;6211983;23;20168;-87
2022/12/08 10:02:00;;;;;;;8.45;4.65;;;4.80;99.90;;;;;;6213010;23;20153;-87
2022/12/08 10:04:26;;;;;;;8.68;3.97;;;5.00;99.90;;;;;;6210648;23;20197;-87
2022/12/08 10:07:19;;;;;;;8.40;3.90;;;5.10;99.90;;;;;;6213382;23;20164;-87
2022/12/08 10:09:59;;;;;;;5.43;4.10;;;5.20;99.90;;;;;;6212725;23;20157;-87
2022/12/08 10:12:48;;;;;;;8.77;3.20;;;5.00;99.90;;;;;;6212544;23;20491;-87
2022/12/08 10:15:48;;;;;;;12.00;3.95;;;4.90;99.90;;;;;;6210079;23;20592;-87
2022/12/08 10:18:18;;;;;;;5.28;3.65;;;4.70;99.90;;;;;;6212017;23;20196;-87
2022/12/08 10:20:46;;;;;;;8.65;4.25;;;4.80;99.90;;;;;;6213842;23;20141;-87
2022/12/08 10:23:11;;;;;;;14.90;6.07;;;4.60;99.90;;;;;;6211441;23;20195;-87
2022/12/08 10:25:45;;;;;;;6.03;4.60;;;4.40;99.90;;;;;;6214923;23;20176;-86
2022/12/08 10:28:11;;;;;;;5.70;3.45;;;4.80;99.90;;;;;;6210864;23;20156;-87
2022/12/08 10:30:38;;;;;;;7.20;3.93;;;5.00;99.90;;;;;;6211309;23;20498;-88
2022/12/08 10:33:04;;;;;;;8.85;4.72;;;4.90;99.90;;;;;;6212672;23;20404;-87
2022/12/08 10:35:53;;;;;;;8.20;4.97;;;4.70;99.90;;;;;;6212115;23;20610;-87
2022/12/08 10:38:28;;;;;;;7.90;5.18;;;4.70;99.90;;;;;;6214935;23;20817;-87
2022/12/08 10:41:01;;;;;;;8.85;4.55;;;4.90;99.90;;;;;;6214599;23;20133;-87
2022/12/08 10:43:27;;;;;;;6.30;4.00;;;4.90;99.90;;;;;;6212399;23;20223;-87
2022/12/08 10:45:53;;;;;;;13.13;4.83;;;;;;;;;;6210398;23;20232;-87
2022/12/08 10:48:24;;;;;;;6.38;4.55;;;4.80;99.90;;;;;;6212302;23;20622;-87
2022/12/08 10:50:55;;;;;;;12.35;4.50;;;5.10;99.90;;;;;;6211580;23;20646;-87
2022/12/08 10:53:29;;;;;;;10.65;4.55;;;5.40;99.90;;;;;;6211472;23;20180;-87
2022/12/08 10:56:00;;;;;;;8.10;4.05;;;5.30;99.90;;;;;;6213853;23;20255;-87
2022/12/08 10:58:40;;;;;;;8.82;4.35;;;5.30;99.90;;;;;;6211594;23;20573;-87
2022/12/08 11:01:12;;;;;;;5.82;3.78;;;5.60;99.90;;;;;;6212407;23;20141;-87
2022/12/08 11:03:58;;;;;;;11.32;4.53;;;5.60;99.90;;;;;;6215231;23;20165;-87
2022/12/08 11:06:31;;;;;;;6.65;5.45;;;5.60;99.90;;;;;;6214055;23;20620;-88
2022/12/08 11:09:00;;;;;;;8.43;3.55;;;5.50;99.90;;;;;;6214290;23;20182;-87
2022/12/08 11:11:48;;;;;;;5.65;3.95;;;5.80;99.90;;;;;;6213830;23;20469;-88
2022/12/08 11:14:26;;;;;;;5.55;4.18;;;5.10;99.90;;;;;;6212828;23;20277;-87
2022/12/08 11:17:06;;;;;;;6.72;3.90;;;4.90;99.90;;;;;;6213384;23;20184;-87
2022/12/08 11:19:37;;;;;;;15.60;5.20;;;4.70;99.90;;;;;;6213081;23;20142;-87
2022/12/08 11:22:38;;;;;;;8.73;3.95;;;4.90;99.90;;;;;;6214217;23;20137;-87
2022/12/08 11:25:07;;;;;;;7.82;4.05;;;5.10;99.90;;;;;;6213685;23;20572;-88
2022/12/08 11:27:39;;;;;;;4.93;3.78;;;5.40;99.90;;;;;;6213704;23;20168;-87
2022/12/08 11:30:30;;;;;;;4.97;3.72;;;5.50;99.90;;;;;;6213588;23;20165;-87
2022/12/08 11:33:15;;;;;;;6.13;4.40;;;5.50;99.90;;;;;;6211896;23;20183;-87
2022/12/08 11:35:44;;;;;;;8.02;3.55;;;5.50;99.90;;;;;;6212386;23;20236;-87
2022/12/08 11:38:20;;;;;;;6.53;3.83;;;5.00;99.90;;;;;;6214014;23;20169;-87
2022/12/08 11:40:50;;;;;;;10.02;4.30;;;4.90;99.90;;;;;;6213745;23;20137;-87
2022/12/08 11:43:34;;;;;;;8.18;3.70;;;4.60;99.90;;;;;;6214982;22;20197;-83
2022/12/08 11:46:23;;;;;;;8.13;4.13;;;4.60;99.90;;;;;;6216725;23;20145;-83
2022/12/08 11:48:52;;;;;;;9.82;4.15;;;4.60;99.90;;;;;;6205288;23;20211;-84
2022/12/08 11:51:38;;;;;;;6.97;3.28;;;4.50;99.90;;;;;;6217066;23;20176;-84
2022/12/08 11:54:29;;;;;;;9.85;5.40;;;4.70;99.90;;;;;;6218321;23;20197;-84
2022/12/08 11:56:56;;;;;;;6.60;4.13;;;4.90;99.90;;;;;;6217381;23;20708;-84
2022/12/08 11:59:32;;;;;;;7.18;4.80;;;4.50;99.90;;;;;;6217089;23;20145;-83
2022/12/08 12:02:00;;;;;;;9.20;5.30;;;4.40;99.90;;;;;;6217638;23;20140;-84
2022/12/08 12:04:38;;;;;;;5.88;3.65;;;4.50;99.90;;;;;;6215307;23;20514;-84
2022/12/08 12:07:15;;;;;;;8.95;4.90;;;4.40;99.90;;;;;;6218211;23;20140;-84
2022/12/08 12:09:59;;;;;;;6.85;4.50;;;4.50;99.90;;;;;;6218388;23;20249;-84
2022/12/08 12:12:39;;;;;;;12.82;5.25;;;4.60;99.90;;;;;;6216864;23;20142;-84
2022/12/08 12:15:22;;;;;;;10.18;5.35;;;4.60;99.90;;;;;;6217607;23;20134;-85
2022/12/08 12:18:03;;;;;;;8.15;4.70;;;4.70;99.90;;;;;;6217170;23;20408;-84
2022/12/08 12:20:38;;;;;;;13.85;5.82;;;5.00;99.90;;;;;;6214872;23;20651;-83
2022/12/08 12:23:21;;;;;;;7.03;5.20;;;5.00;99.90;;;;;;6218571;23;20164;-84
2022/12/08 12:25:58;;;;;;;13.18;5.63;;;4.80;99.90;;;;;;6216857;23;20504;-84
2022/12/08 12:28:27;;;;;;;10.75;5.78;;;4.60;99.90;;;;;;6217702;23;20239;-83
2022/12/08 12:31:07;;;;;;;8.88;4.95;;;4.50;99.90;;;;;;6219122;23;20176;-84
2022/12/08 12:33:33;;;;;;;9.23;5.10;;;4.60;99.90;;;;;;6219401;23;20627;-83
2022/12/08 12:36:03;;;;;;;7.93;5.60;;;4.60;99.90;;;;;;6219472;23;20382;-83
2022/12/08 12:41:43;;;;;;;9.48;6.22;;;4.90;99.90;;;;;;6219980;23;20140;-84
2022/12/08 12:44:12;;;;;;;11.02;5.75;;;5.00;99.90;;;;;;6216100;23;20189;-84
2022/12/08 12:46:54;;;;;;;7.65;5.22;;;5.20;99.90;;;;;;6217990;23;20149;-84
2022/12/08 12:49:42;;;;;;;15.55;6.40;;;5.30;99.90;;;;;;6219472;23;20600;-83
2022/12/08 12:52:17;;;;;;;11.27;5.65;;;5.40;99.90;;;;;;6218504;23;20148;-83
2022/12/08 12:54:49;;;;;;;10.70;6.38;;;5.20;99.90;;;;;;6219176;23;20548;-82
2022/12/08 12:57:21;;;;;;;15.00;6.72;;;5.20;99.90;;;;;;6217225;23;20239;-83
2022/12/08 13:00:16;;;;;;;10.07;5.15;;;5.50;99.90;;;;;;6217313;23;20459;-83
2022/12/08 13:02:49;;;;;;;12.10;6.03;;;5.50;99.90;;;;;;6218106;23;20176;-83
2022/12/08 13:05:35;;;;;;;9.23;5.13;;;5.50;99.90;;;;;;6219760;23;20130;-84
2022/12/08 13:08:20;;;;;;;7.90;5.15;;;5.50;99.90;;;;;;6220236;23;20169;-83
2022/12/08 13:11:00;;;;;;;7.38;5.63;;;5.60;99.90;;;;;;6217566;23;20141;-83
2022/12/08 13:13:27;;;;;;;13.32;6.43;;;5.60;99.90;;;;;;6218136;23;20188;-83
2022/12/08 13:16:12;;;;;;;9.70;6.10;;;5.50;99.90;;;;;;6219459;23;20153;-83
2022/12/08 13:18:45;;;;;;;14.07;6.55;;;5.50;99.90;;;;;;6218777;23;20555;-83
2022/12/08 13:21:35;;;;;;;13.70;6.25;;;5.00;99.90;;;;;;6217012;23;20539;-83
2022/12/08 13:24:13;;;;;;;11.20;6.55;;;4.80;99.90;;;;;;6202595;23;20170;-83
2022/12/08 13:27:03;;;;;;;11.52;5.63;;;4.80;99.90;;;;;;6218541;23;20156;-83
2022/12/08 13:29:33;;;;;;;12.68;5.32;;;4.90;99.90;;;;;;6219906;23;20321;-83
2022/12/08 13:32:08;;;;;;;10.13;5.25;;;4.90;99.90;;;;;;6217382;23;20478;-83
2022/12/08 13:34:50;;;;;;;11.13;6.53;;;4.80;99.90;;;;;;6217212;23;20183;-83
2022/12/08 13:37:24;;;;;;;12.43;7.28;;;5.00;99.90;;;;;;6217970;23;20169;-83
2022/12/08 13:40:19;;;;;;;8.48;5.10;;;5.00;99.90;;;;;;6218531;23;20165;-84